sensor_id;sensor_type;location;lat;lon;timestamp;pressure;altitude;pressure_sealevel;temperature;humidity
29169;BME280;16219;42.864;23.360;2023-06-04T00:00:52;95952.38;;;17.65;100.00
29169;BME280;16219;42.864;23.360;2023-06-04T00:03:21;95970.16;;;17.77;100.00
29169;BME280;16219;42.864;23.360;2023-06-04T00:05:48;95961.50;;;17.64;100.00
29169;BME280;16219;42.864;23.360;2023-06-04T00:08:15;95935.72;;;17.52;100.00
29169;BME280;16219;42.864;23.360;2023-06-04T00:10:42;95973.78;;;17.68;100.00
29169;BME280;16219;42.864;23.360;2023-06-04T00:13:09;95971.19;;;17.72;100.00
29169;BME280;16219;42.864;23.360;2023-06-04T00:15:36;95975.69;;;17.68;100.00
29169;BME280;16219;42.864;23.360;2023-06-04T00:18:03;95971.31;;;17.60;100.00
29169;BME280;16219;42.864;23.360;2023-06-04T00:20:31;95940.34;;;17.36;100.00
29169;BME280;16219;42.864;23.360;2023-06-04T00:22:58;95954.41;;;17.52;100.00
29169;BME280;16219;42.864;23.360;2023-06-04T00:25:25;95955.00;;;17.45;100.00
29169;BME280;16219;42.864;23.360;2023-06-04T00:27:52;95950.88;;;17.48;100.00
29169;BME280;16219;42.864;23.360;2023-06-04T00:30:19;95961.34;;;17.57;100.00
29169;BME280;16219;42.864;23.360;2023-06-04T00:32:47;95963.66;;;17.58;100.00
29169;BME280;16219;42.864;23.360;2023-06-04T00:35:14;95963.28;;;17.40;100.00
29169;BME280;16219;42.864;23.360;2023-06-04T00:37:42;95958.81;;;17.44;100.00
29169;BME280;16219;42.864;23.360;2023-06-04T00:40:10;95950.53;;;17.49;100.00
29169;BME280;16219;42.864;23.360;2023-06-04T00:42:37;95964.38;;;17.55;100.00
29169;BME280;16219;42.864;23.360;2023-06-04T00:45:05;95960.09;;;17.51;100.00
29169;BME280;16219;42.864;23.360;2023-06-04T00:47:33;95928.91;;;17.35;100.00
29169;BME280;16219;42.864;23.360;2023-06-04T00:50:00;95956.28;;;17.52;100.00
29169;BME280;16219;42.864;23.360;2023-06-04T00:52:28;95959.72;;;17.52;100.00
29169;BME280;16219;42.864;23.360;2023-06-04T00:54:58;95948.06;;;17.41;100.00
29169;BME280;16219;42.864;23.360;2023-06-04T00:57:25;95951.38;;;17.54;100.00
29169;BME280;16219;42.864;23.360;2023-06-04T00:59:52;95915.41;;;17.28;100.00
29169;BME280;16219;42.864;23.360;2023-06-04T01:02:21;95948.28;;;17.52;100.00
29169;BME280;16219;42.864;23.360;2023-06-04T01:04:54;95913.88;;;17.27;100.00
29169;BME280;16219;42.864;23.360;2023-06-04T01:07:26;95954.81;;;17.54;100.00
29169;BME280;16219;42.864;23.360;2023-06-04T01:09:54;95950.59;;;17.53;100.00
29169;BME280;16219;42.864;23.360;2023-06-04T01:12:23;95955.94;;;17.53;100.00
29169;BME280;16219;42.864;23.360;2023-06-04T01:14:50;95933.97;;;17.40;100.00
29169;BME280;16219;42.864;23.360;2023-06-04T01:17:20;95955.16;;;17.53;100.00
29169;BME280;16219;42.864;23.360;2023-06-04T01:20:01;95956.69;;;17.54;100.00
29169;BME280;16219;42.864;23.360;2023-06-04T01:22:36;95957.47;;;17.54;100.00
29169;BME280;16219;42.864;23.360;2023-06-04T01:25:12;95955.84;;;17.49;100.00
29169;BME280;16219;42.864;23.360;2023-06-04T01:27:49;95961.31;;;17.37;100.00
29169;BME280;16219;42.864;23.360;2023-06-04T01:30:19;95951.69;;;17.33;100.00
29169;BME280;16219;42.864;23.360;2023-06-04T01:32:47;95963.84;;;17.49;100.00
29169;BME280;16219;42.864;23.360;2023-06-04T01:35:14;95956.50;;;17.43;100.00
29169;BME280;16219;42.864;23.360;2023-06-04T01:37:41;95917.03;;;17.13;100.00
29169;BME280;16219;42.864;23.360;2023-06-04T01:40:08;95965.69;;;17.45;100.00
29169;BME280;16219;42.864;23.360;2023-06-04T01:42:36;95968.50;;;17.53;100.00
29169;BME280;16219;42.864;23.360;2023-06-04T01:45:05;95961.06;;;17.42;100.00
29169;BME280;16219;42.864;23.360;2023-06-04T01:47:32;95950.16;;;17.32;100.00
29169;BME280;16219;42.864;23.360;2023-06-04T01:50:02;95972.59;;;17.46;100.00
29169;BME280;16219;42.864;23.360;2023-06-04T01:52:29;95971.00;;;17.45;100.00
29169;BME280;16219;42.864;23.360;2023-06-04T01:54:56;95982.47;;;17.46;100.00
29169;BME280;16219;42.864;23.360;2023-06-04T01:57:24;95974.81;;;17.44;100.00
29169;BME280;16219;42.864;23.360;2023-06-04T01:59:52;95969.47;;;17.44;100.00
29169;BME280;16219;42.864;23.360;2023-06-04T02:02:20;95978.88;;;17.38;100.00
29169;BME280;16219;42.864;23.360;2023-06-04T02:04:47;95972.06;;;17.41;100.00
29169;BME280;16219;42.864;23.360;2023-06-04T02:07:18;95980.59;;;17.46;100.00
29169;BME280;16219;42.864;23.360;2023-06-04T02:09:46;95988.66;;;17.50;100.00
29169;BME280;16219;42.864;23.360;2023-06-04T02:12:13;95992.88;;;17.51;100.00
29169;BME280;16219;42.864;23.360;2023-06-04T02:14:40;95992.44;;;17.49;100.00
29169;BME280;16219;42.864;23.360;2023-06-04T02:17:11;95982.72;;;17.41;100.00
29169;BME280;16219;42.864;23.360;2023-06-04T02:19:40;95993.91;;;17.46;100.00
29169;BME280;16219;42.864;23.360;2023-06-04T02:22:10;95997.75;;;17.49;100.00
29169;BME280;16219;42.864;23.360;2023-06-04T02:24:37;96001.91;;;17.46;100.00
29169;BME280;16219;42.864;23.360;2023-06-04T02:27:08;95998.41;;;17.42;100.00
29169;BME280;16219;42.864;23.360;2023-06-04T02:29:35;95972.81;;;17.22;100.00
29169;BME280;16219;42.864;23.360;2023-06-04T02:32:02;96012.16;;;17.44;100.00
29169;BME280;16219;42.864;23.360;2023-06-04T02:34:30;96012.72;;;17.54;100.00
29169;BME280;16219;42.864;23.360;2023-06-04T02:36:59;96009.84;;;17.43;100.00
29169;BME280;16219;42.864;23.360;2023-06-04T02:39:26;95986.56;;;17.24;100.00
29169;BME280;16219;42.864;23.360;2023-06-04T02:41:53;96000.34;;;17.26;100.00
29169;BME280;16219;42.864;23.360;2023-06-04T02:44:20;96007.44;;;17.38;100.00
29169;BME280;16219;42.864;23.360;2023-06-04T02:46:47;96004.78;;;17.38;100.00
29169;BME280;16219;42.864;23.360;2023-06-04T02:49:14;96012.66;;;17.50;100.00
29169;BME280;16219;42.864;23.360;2023-06-04T02:51:42;96002.03;;;17.34;100.00
29169;BME280;16219;42.864;23.360;2023-06-04T02:54:10;96021.19;;;17.40;100.00
29169;BME280;16219;42.864;23.360;2023-06-04T02:56:38;96018.16;;;17.41;100.00
29169;BME280;16219;42.864;23.360;2023-06-04T02:59:06;96020.72;;;17.34;100.00
29169;BME280;16219;42.864;23.360;2023-06-04T03:01:36;96029.94;;;17.21;100.00
29169;BME280;16219;42.864;23.360;2023-06-04T03:04:05;96011.88;;;17.14;100.00
29169;BME280;16219;42.864;23.360;2023-06-04T03:09:14;96035.16;;;17.33;100.00
29169;BME280;16219;42.864;23.360;2023-06-04T03:11:41;96035.00;;;17.26;100.00
29169;BME280;16219;42.864;23.360;2023-06-04T03:14:08;96036.81;;;17.22;100.00
29169;BME280;16219;42.864;23.360;2023-06-04T03:16:35;96037.38;;;17.31;100.00
29169;BME280;16219;42.864;23.360;2023-06-04T03:19:05;96038.88;;;17.13;100.00
29169;BME280;16219;42.864;23.360;2023-06-04T03:21:32;96039.47;;;17.06;100.00
29169;BME280;16219;42.864;23.360;2023-06-04T03:23:59;96044.22;;;17.13;100.00
29169;BME280;16219;42.864;23.360;2023-06-04T03:26:28;96052.53;;;17.11;100.00
29169;BME280;16219;42.864;23.360;2023-06-04T03:28:55;96052.38;;;17.20;100.00
29169;BME280;16219;42.864;23.360;2023-06-04T03:31:22;96050.06;;;17.18;100.00
29169;BME280;16219;42.864;23.360;2023-06-04T03:33:49;96047.03;;;17.20;100.00
29169;BME280;16219;42.864;23.360;2023-06-04T03:36:16;96061.94;;;17.21;100.00
29169;BME280;16219;42.864;23.360;2023-06-04T03:38:45;96055.03;;;17.20;100.00
29169;BME280;16219;42.864;23.360;2023-06-04T03:41:12;96059.69;;;17.23;100.00
29169;BME280;16219;42.864;23.360;2023-06-04T03:43:42;96059.75;;;17.27;100.00
29169;BME280;16219;42.864;23.360;2023-06-04T03:46:10;96060.81;;;17.22;100.00
29169;BME280;16219;42.864;23.360;2023-06-04T03:48:37;96058.91;;;17.22;100.00
29169;BME280;16219;42.864;23.360;2023-06-04T03:51:04;96066.56;;;17.24;100.00
29169;BME280;16219;42.864;23.360;2023-06-04T03:53:33;96062.69;;;17.21;100.00
29169;BME280;16219;42.864;23.360;2023-06-04T03:56:01;96061.94;;;17.21;100.00
29169;BME280;16219;42.864;23.360;2023-06-04T03:58:29;96069.94;;;17.21;100.00
29169;BME280;16219;42.864;23.360;2023-06-04T04:00:58;96072.31;;;17.26;100.00
29169;BME280;16219;42.864;23.360;2023-06-04T04:03:27;96070.06;;;17.28;100.00
29169;BME280;16219;42.864;23.360;2023-06-04T04:05:58;96075.41;;;17.28;100.00
29169;BME280;16219;42.864;23.360;2023-06-04T04:08:25;96078.84;;;17.29;100.00
29169;BME280;16219;42.864;23.360;2023-06-04T04:10:58;96083.50;;;17.32;100.00
29169;BME280;16219;42.864;23.360;2023-06-04T04:13:25;96070.78;;;17.25;100.00
29169;BME280;16219;42.864;23.360;2023-06-04T04:15:53;96081.31;;;17.37;100.00
29169;BME280;16219;42.864;23.360;2023-06-04T04:18:22;96085.75;;;17.30;100.00
29169;BME280;16219;42.864;23.360;2023-06-04T04:20:49;96090.13;;;17.22;100.00
29169;BME280;16219;42.864;23.360;2023-06-04T04:23:16;96089.28;;;17.18;100.00
29169;BME280;16219;42.864;23.360;2023-06-04T04:25:45;96092.81;;;17.22;100.00
29169;BME280;16219;42.864;23.360;2023-06-04T04:28:13;96095.13;;;17.23;100.00
29169;BME280;16219;42.864;23.360;2023-06-04T04:30:40;96099.41;;;17.28;100.00
29169;BME280;16219;42.864;23.360;2023-06-04T04:33:09;96100.97;;;17.29;100.00
29169;BME280;16219;42.864;23.360;2023-06-04T04:35:45;96103.38;;;17.34;100.00
29169;BME280;16219;42.864;23.360;2023-06-04T04:38:16;96101.13;;;17.36;100.00
29169;BME280;16219;42.864;23.360;2023-06-04T04:40:49;96093.22;;;17.24;100.00
29169;BME280;16219;42.864;23.360;2023-06-04T04:43:28;96089.88;;;17.11;100.00
29169;BME280;16219;42.864;23.360;2023-06-04T04:45:56;96099.25;;;17.21;100.00
29169;BME280;16219;42.864;23.360;2023-06-04T04:48:24;96099.41;;;17.28;100.00
29169;BME280;16219;42.864;23.360;2023-06-04T04:50:53;96100.25;;;17.32;100.00
29169;BME280;16219;42.864;23.360;2023-06-04T04:53:21;96104.91;;;17.35;100.00
29169;BME280;16219;42.864;23.360;2023-06-04T04:55:48;96102.66;;;17.37;100.00
29169;BME280;16219;42.864;23.360;2023-06-04T04:58:17;96102.34;;;17.39;100.00
29169;BME280;16219;42.864;23.360;2023-06-04T05:00:44;96105.28;;;17.34;100.00
29169;BME280;16219;42.864;23.360;2023-06-04T05:03:13;96101.13;;;17.36;100.00
29169;BME280;16219;42.864;23.360;2023-06-04T05:05:41;96103.47;;;17.38;100.00
29169;BME280;16219;42.864;23.360;2023-06-04T05:08:12;96106.91;;;17.38;100.00
29169;BME280;16219;42.864;23.360;2023-06-04T05:10:42;96100.84;;;17.41;100.00
29169;BME280;16219;42.864;23.360;2023-06-04T05:13:10;96110.44;;;17.42;100.00
29169;BME280;16219;42.864;23.360;2023-06-04T05:15:46;96106.72;;;17.47;100.00
29169;BME280;16219;42.864;23.360;2023-06-04T05:18:19;96108.69;;;17.50;100.00
29169;BME280;16219;42.864;23.360;2023-06-04T05:20:50;96113.03;;;17.58;100.00
29169;BME280;16219;42.864;23.360;2023-06-04T05:23:19;96110.91;;;17.64;100.00
29169;BME280;16219;42.864;23.360;2023-06-04T05:25:48;96112.03;;;17.63;100.00
29169;BME280;16219;42.864;23.360;2023-06-04T05:28:17;96118.75;;;17.57;100.00
29169;BME280;16219;42.864;23.360;2023-06-04T05:30:46;96110.56;;;17.49;100.00
29169;BME280;16219;42.864;23.360;2023-06-04T05:33:15;96112.06;;;17.47;100.00
29169;BME280;16219;42.864;23.360;2023-06-04T05:35:51;96116.94;;;17.45;100.00
29169;BME280;16219;42.864;23.360;2023-06-04T05:38:22;96110.56;;;17.49;100.00
29169;BME280;16219;42.864;23.360;2023-06-04T05:40:53;96123.66;;;17.55;100.00
29169;BME280;16219;42.864;23.360;2023-06-04T05:43:23;96128.72;;;17.60;100.00
29169;BME280;16219;42.864;23.360;2023-06-04T05:45:50;96129.84;;;17.59;100.00
29169;BME280;16219;42.864;23.360;2023-06-04T05:48:19;96125.00;;;17.64;100.00
29169;BME280;16219;42.864;23.360;2023-06-04T05:50:47;96132.44;;;17.55;100.00
29169;BME280;16219;42.864;23.360;2023-06-04T05:53:15;96135.09;;;17.55;100.00
29169;BME280;16219;42.864;23.360;2023-06-04T05:55:46;96136.03;;;17.63;100.00
29169;BME280;16219;42.864;23.360;2023-06-04T05:58:14;96136.63;;;17.72;100.00
29169;BME280;16219;42.864;23.360;2023-06-04T06:00:42;96142.28;;;17.70;100.00
29169;BME280;16219;42.864;23.360;2023-06-04T06:03:10;96147.75;;;17.74;100.00
29169;BME280;16219;42.864;23.360;2023-06-04T06:05:43;96144.75;;;17.76;100.00
29169;BME280;16219;42.864;23.360;2023-06-04T06:08:10;96150.13;;;17.79;100.00
29169;BME280;16219;42.864;23.360;2023-06-04T06:10:38;96153.53;;;17.76;100.00
29169;BME280;16219;42.864;23.360;2023-06-04T06:13:07;96154.94;;;17.73;100.00
29169;BME280;16219;42.864;23.360;2023-06-04T06:15:35;96158.16;;;17.79;100.00
29169;BME280;16219;42.864;23.360;2023-06-04T06:18:02;96153.56;;;17.80;100.00
29169;BME280;16219;42.864;23.360;2023-06-04T06:20:30;96164.00;;;17.85;100.00
29169;BME280;16219;42.864;23.360;2023-06-04T06:23:06;96157.09;;;17.84;100.00
29169;BME280;16219;42.864;23.360;2023-06-04T06:25:36;96156.69;;;17.82;100.00
29169;BME280;16219;42.864;23.360;2023-06-04T06:28:12;96164.50;;;17.90;100.00
29169;BME280;16219;42.864;23.360;2023-06-04T06:30:40;96163.47;;;17.95;100.00
29169;BME280;16219;42.864;23.360;2023-06-04T06:33:07;96160.28;;;17.89;100.00
29169;BME280;16219;42.864;23.360;2023-06-04T06:35:35;96154.59;;;17.91;100.00
29169;BME280;16219;42.864;23.360;2023-06-04T06:38:03;96161.38;;;18.04;100.00
29169;BME280;16219;42.864;23.360;2023-06-04T06:40:30;96162.97;;;18.09;100.00
29169;BME280;16219;42.864;23.360;2023-06-04T06:42:57;96170.59;;;18.07;100.00
29169;BME280;16219;42.864;23.360;2023-06-04T06:45:45;96164.88;;;18.08;100.00
29169;BME280;16219;42.864;23.360;2023-06-04T06:48:12;96164.47;;;18.06;100.00
29169;BME280;16219;42.864;23.360;2023-06-04T06:50:39;96163.75;;;18.09;100.00
29169;BME280;16219;42.864;23.360;2023-06-04T06:53:07;96162.91;;;18.05;100.00
29169;BME280;16219;42.864;23.360;2023-06-04T06:55:34;96158.50;;;18.13;100.00
29169;BME280;16219;42.864;23.360;2023-06-04T06:58:02;96159.63;;;18.12;100.00
29169;BME280;16219;42.864;23.360;2023-06-04T07:00:29;96167.06;;;18.22;100.00
29169;BME280;16219;42.864;23.360;2023-06-04T07:02:58;96158.16;;;18.34;100.00
29169;BME280;16219;42.864;23.360;2023-06-04T07:05:26;96166.41;;;18.44;100.00
29169;BME280;16219;42.864;23.360;2023-06-04T07:07:53;96164.00;;;18.59;100.00
29169;BME280;16219;42.864;23.360;2023-06-04T07:10:22;96163.19;;;18.74;100.00
29169;BME280;16219;42.864;23.360;2023-06-04T07:12:50;96173.06;;;18.93;100.00
29169;BME280;16219;42.864;23.360;2023-06-04T07:15:17;96175.53;;;19.02;100.00
29169;BME280;16219;42.864;23.360;2023-06-04T07:17:45;96172.03;;;19.20;100.00
29169;BME280;16219;42.864;23.360;2023-06-04T07:20:14;96192.19;;;19.37;100.00
29169;BME280;16219;42.864;23.360;2023-06-04T07:22:41;96185.63;;;19.58;100.00
29169;BME280;16219;42.864;23.360;2023-06-04T07:25:09;96190.88;;;19.73;100.00
29169;BME280;16219;42.864;23.360;2023-06-04T07:27:36;96180.84;;;19.93;100.00
29169;BME280;16219;42.864;23.360;2023-06-04T07:30:05;96191.16;;;20.18;100.00
29169;BME280;16219;42.864;23.360;2023-06-04T07:32:33;96197.69;;;20.20;100.00
29169;BME280;16219;42.864;23.360;2023-06-04T07:35:01;96198.94;;;20.30;100.00
29169;BME280;16219;42.864;23.360;2023-06-04T07:37:30;96200.69;;;20.45;100.00
29169;BME280;16219;42.864;23.360;2023-06-04T07:39:58;96190.09;;;20.53;100.00
29169;BME280;16219;42.864;23.360;2023-06-04T07:42:25;96198.53;;;20.55;100.00
29169;BME280;16219;42.864;23.360;2023-06-04T07:44:53;96200.84;;;20.56;100.00
29169;BME280;16219;42.864;23.360;2023-06-04T07:47:20;96208.56;;;20.61;100.00
29169;BME280;16219;42.864;23.360;2023-06-04T07:49:47;96202.75;;;20.56;100.00
29169;BME280;16219;42.864;23.360;2023-06-04T07:52:15;96194.47;;;20.68;100.00
29169;BME280;16219;42.864;23.360;2023-06-04T07:54:45;96199.31;;;20.89;100.00
29169;BME280;16219;42.864;23.360;2023-06-04T07:57:12;96202.84;;;20.96;100.00
29169;BME280;16219;42.864;23.360;2023-06-04T07:59:40;96207.00;;;20.90;100.00
29169;BME280;16219;42.864;23.360;2023-06-04T08:02:08;96211.09;;;20.81;100.00
29169;BME280;16219;42.864;23.360;2023-06-04T08:04:35;96204.88;;;20.73;100.00
29169;BME280;16219;42.864;23.360;2023-06-04T08:07:03;96211.94;;;20.88;100.00
29169;BME280;16219;42.864;23.360;2023-06-04T08:09:31;96220.84;;;20.96;100.00
29169;BME280;16219;42.864;23.360;2023-06-04T08:12:01;96216.06;;;20.79;100.00
29169;BME280;16219;42.864;23.360;2023-06-04T08:14:29;96209.50;;;20.76;100.00
29169;BME280;16219;42.864;23.360;2023-06-04T08:16:57;96216.25;;;20.63;100.00
29169;BME280;16219;42.864;23.360;2023-06-04T08:19:25;96219.69;;;20.63;100.00
29169;BME280;16219;42.864;23.360;2023-06-04T08:21:52;96220.75;;;20.55;100.00
29169;BME280;16219;42.864;23.360;2023-06-04T08:24:21;96219.56;;;20.53;100.00
29169;BME280;16219;42.864;23.360;2023-06-04T08:26:56;96221.16;;;20.57;100.00
29169;BME280;16219;42.864;23.360;2023-06-04T08:29:32;96222.75;;;20.62;100.00
29169;BME280;16219;42.864;23.360;2023-06-04T08:31:59;96228.81;;;20.59;100.00
29169;BME280;16219;42.864;23.360;2023-06-04T08:34:27;96231.38;;;20.48;100.00
29169;BME280;16219;42.864;23.360;2023-06-04T08:36:55;96227.81;;;20.40;100.00
29169;BME280;16219;42.864;23.360;2023-06-04T08:39:23;96237.69;;;20.36;100.00
29169;BME280;16219;42.864;23.360;2023-06-04T08:41:52;96232.66;;;20.31;100.00
29169;BME280;16219;42.864;23.360;2023-06-04T08:44:20;96229.78;;;20.47;100.00
29169;BME280;16219;42.864;23.360;2023-06-04T08:46:51;96237.50;;;20.49;100.00
29169;BME280;16219;42.864;23.360;2023-06-04T08:49:21;96235.44;;;20.65;100.00
29169;BME280;16219;42.864;23.360;2023-06-04T08:51:49;96243.19;;;20.74;100.00
29169;BME280;16219;42.864;23.360;2023-06-04T08:54:17;96244.06;;;20.85;100.00
29169;BME280;16219;42.864;23.360;2023-06-04T08:56:44;96253.03;;;20.96;100.00
29169;BME280;16219;42.864;23.360;2023-06-04T08:59:12;96244.78;;;21.12;100.00
29169;BME280;16219;42.864;23.360;2023-06-04T09:01:40;96250.72;;;21.28;100.00
29169;BME280;16219;42.864;23.360;2023-06-04T09:04:11;96244.66;;;21.35;100.00
29169;BME280;16219;42.864;23.360;2023-06-04T09:06:40;96257.78;;;21.43;100.00
29169;BME280;16219;42.864;23.360;2023-06-04T09:09:09;96255.56;;;21.53;100.00
29169;BME280;16219;42.864;23.360;2023-06-04T09:11:42;96252.22;;;21.63;100.00
29169;BME280;16219;42.864;23.360;2023-06-04T09:14:14;96249.16;;;21.64;100.00
29169;BME280;16219;42.864;23.360;2023-06-04T09:16:44;96251.44;;;21.62;100.00
29169;BME280;16219;42.864;23.360;2023-06-04T09:19:14;96253.84;;;21.78;100.00
29169;BME280;16219;42.864;23.360;2023-06-04T09:21:52;96258.19;;;21.90;100.00
29169;BME280;16219;42.864;23.360;2023-06-04T09:24:22;96262.38;;;21.87;100.00
29169;BME280;16219;42.864;23.360;2023-06-04T09:26:50;96245.94;;;21.92;100.00
29169;BME280;16219;42.864;23.360;2023-06-04T09:29:17;96257.66;;;22.18;100.00
29169;BME280;16219;42.864;23.360;2023-06-04T09:31:57;96254.66;;;22.34;100.00
29169;BME280;16219;42.864;23.360;2023-06-04T09:34:29;96251.97;;;22.30;100.00
29169;BME280;16219;42.864;23.360;2023-06-04T09:36:58;96254.59;;;22.23;100.00
29169;BME280;16219;42.864;23.360;2023-06-04T09:39:26;96248.50;;;22.26;100.00
29169;BME280;16219;42.864;23.360;2023-06-04T09:41:58;96248.88;;;22.28;100.00
29169;BME280;16219;42.864;23.360;2023-06-04T09:44:26;96251.56;;;22.28;100.00
29169;BME280;16219;42.864;23.360;2023-06-04T09:46:55;96255.44;;;22.38;100.00
29169;BME280;16219;42.864;23.360;2023-06-04T09:49:23;96257.03;;;22.46;100.00
29169;BME280;16219;42.864;23.360;2023-06-04T09:51:52;96248.69;;;22.62;100.00
29169;BME280;16219;42.864;23.360;2023-06-04T09:54:20;96251.88;;;22.85;100.00
29169;BME280;16219;42.864;23.360;2023-06-04T09:56:47;96243.00;;;22.78;100.00
29169;BME280;16219;42.864;23.360;2023-06-04T09:59:15;96250.97;;;22.63;100.00
29169;BME280;16219;42.864;23.360;2023-06-04T10:01:44;96243.69;;;22.64;100.00
29169;BME280;16219;42.864;23.360;2023-06-04T10:04:13;96247.56;;;22.70;100.00
29169;BME280;16219;42.864;23.360;2023-06-04T10:06:42;96238.78;;;22.87;100.00
29169;BME280;16219;42.864;23.360;2023-06-04T10:09:12;96251.13;;;22.92;100.00
29169;BME280;16219;42.864;23.360;2023-06-04T10:11:41;96249.88;;;22.71;100.00
29169;BME280;16219;42.864;23.360;2023-06-04T10:14:15;96237.94;;;22.62;100.00
29169;BME280;16219;42.864;23.360;2023-06-04T10:16:46;96242.56;;;22.65;100.00
29169;BME280;16219;42.864;23.360;2023-06-04T10:19:14;96247.56;;;22.70;100.00
29169;BME280;16219;42.864;23.360;2023-06-04T10:21:43;96248.22;;;22.49;100.00
29169;BME280;16219;42.864;23.360;2023-06-04T10:24:12;96241.69;;;22.50;100.00
29169;BME280;16219;42.864;23.360;2023-06-04T10:26:42;96251.63;;;22.42;100.00
29169;BME280;16219;42.864;23.360;2023-06-04T10:29:11;96253.47;;;22.24;100.00
29169;BME280;16219;42.864;23.360;2023-06-04T10:31:39;96246.91;;;22.21;100.00
29169;BME280;16219;42.864;23.360;2023-06-04T10:34:07;96240.47;;;22.37;100.00
29169;BME280;16219;42.864;23.360;2023-06-04T10:36:42;96241.75;;;22.61;100.00
29169;BME280;16219;42.864;23.360;2023-06-04T10:39:11;96242.22;;;22.77;100.00
29169;BME280;16219;42.864;23.360;2023-06-04T10:41:39;96241.09;;;22.82;100.00
29169;BME280;16219;42.864;23.360;2023-06-04T10:44:06;96246.16;;;22.90;100.00
29169;BME280;16219;42.864;23.360;2023-06-04T10:46:38;96246.53;;;22.96;100.00
29169;BME280;16219;42.864;23.360;2023-06-04T10:49:08;96255.38;;;22.97;100.00
29169;BME280;16219;42.864;23.360;2023-06-04T10:51:35;96247.69;;;23.02;100.00
29169;BME280;16219;42.864;23.360;2023-06-04T10:54:04;96252.38;;;23.16;100.00
29169;BME280;16219;42.864;23.360;2023-06-04T10:56:33;96238.97;;;23.37;100.00
29169;BME280;16219;42.864;23.360;2023-06-04T10:59:13;96240.09;;;23.29;100.00
29169;BME280;16219;42.864;23.360;2023-06-04T11:01:41;96242.78;;;23.22;100.00
29169;BME280;16219;42.864;23.360;2023-06-04T11:04:18;96238.88;;;23.02;100.00
29169;BME280;16219;42.864;23.360;2023-06-04T11:06:46;96236.63;;;23.25;100.00
29169;BME280;16219;42.864;23.360;2023-06-04T11:09:14;96246.66;;;23.53;100.00
29169;BME280;16219;42.864;23.360;2023-06-04T11:11:57;96241.28;;;23.64;100.00
29169;BME280;16219;42.864;23.360;2023-06-04T11:14:26;96243.63;;;23.90;100.00
29169;BME280;16219;42.864;23.360;2023-06-04T11:16:53;96240.56;;;23.88;100.00
29169;BME280;16219;42.864;23.360;2023-06-04T11:19:21;96250.59;;;23.88;100.00
29169;BME280;16219;42.864;23.360;2023-06-04T11:21:48;96242.09;;;23.89;100.00
29169;BME280;16219;42.864;23.360;2023-06-04T11:24:16;96242.06;;;23.47;100.00
29169;BME280;16219;42.864;23.360;2023-06-04T11:26:47;96237.34;;;23.01;100.00
29169;BME280;16219;42.864;23.360;2023-06-04T11:29:14;96246.16;;;22.90;100.00
29169;BME280;16219;42.864;23.360;2023-06-04T11:31:42;96236.47;;;22.82;100.00
29169;BME280;16219;42.864;23.360;2023-06-04T11:34:11;96242.19;;;22.70;100.00
29169;BME280;16219;42.864;23.360;2023-06-04T11:36:51;96239.06;;;22.57;100.00
29169;BME280;16219;42.864;23.360;2023-06-04T11:39:20;96220.91;;;22.40;100.00
29169;BME280;16219;42.864;23.360;2023-06-04T11:41:50;96240.13;;;22.42;100.00
29169;BME280;16219;42.864;23.360;2023-06-04T11:44:19;96243.50;;;22.28;100.00
29169;BME280;16219;42.864;23.360;2023-06-04T11:46:47;96241.53;;;22.18;100.00
29169;BME280;16219;42.864;23.360;2023-06-04T11:49:18;96246.09;;;22.14;100.00
29169;BME280;16219;42.864;23.360;2023-06-04T11:51:47;96246.69;;;21.93;100.00
29169;BME280;16219;42.864;23.360;2023-06-04T11:54:16;96248.47;;;21.78;100.00
29169;BME280;16219;42.864;23.360;2023-06-04T11:56:44;96246.03;;;21.59;100.00
29169;BME280;16219;42.864;23.360;2023-06-04T11:59:16;96243.25;;;21.48;100.00
29169;BME280;16219;42.864;23.360;2023-06-04T12:01:45;96250.13;;;21.45;100.00
29169;BME280;16219;42.864;23.360;2023-06-04T12:04:14;96249.38;;;21.49;100.00
29169;BME280;16219;42.864;23.360;2023-06-04T12:06:51;96257.44;;;21.49;100.00
29169;BME280;16219;42.864;23.360;2023-06-04T12:09:20;96257.78;;;21.43;100.00
29169;BME280;16219;42.864;23.360;2023-06-04T12:11:50;96251.63;;;21.43;100.00
29169;BME280;16219;42.864;23.360;2023-06-04T12:14:19;96258.22;;;21.53;100.00
29169;BME280;16219;42.864;23.360;2023-06-04T12:16:55;96254.56;;;21.68;100.00
29169;BME280;16219;42.864;23.360;2023-06-04T12:19:23;96260.47;;;21.91;100.00
29169;BME280;16219;42.864;23.360;2023-06-04T12:22:01;96262.13;;;22.03;100.00
29169;BME280;16219;42.864;23.360;2023-06-04T12:24:31;96248.72;;;22.07;100.00
29169;BME280;16219;42.864;23.360;2023-06-04T12:27:04;96265.78;;;22.29;100.00
29169;BME280;16219;42.864;23.360;2023-06-04T12:29:35;96258.53;;;22.36;100.00
29169;BME280;16219;42.864;23.360;2023-06-04T12:32:06;96259.06;;;22.67;100.00
29169;BME280;16219;42.864;23.360;2023-06-04T12:34:36;96258.88;;;23.08;100.00
29169;BME280;16219;42.864;23.360;2023-06-04T12:37:05;96256.97;;;23.12;100.00
29169;BME280;16219;42.864;23.360;2023-06-04T12:39:33;96243.09;;;22.99;100.00
29169;BME280;16219;42.864;23.360;2023-06-04T12:42:07;96253.56;;;23.29;100.00
29169;BME280;16219;42.864;23.360;2023-06-04T12:44:37;96256.63;;;23.24;100.00
29169;BME280;16219;42.864;23.360;2023-06-04T12:47:06;96255.06;;;23.23;100.00
29169;BME280;16219;42.864;23.360;2023-06-04T12:49:34;96253.47;;;22.97;100.00
29169;BME280;16219;42.864;23.360;2023-06-04T12:52:02;96245.66;;;22.70;100.00